sensor_id;sensor_type;location;lat;lon;timestamp;pressure;altitude;pressure_sealevel;temperature
79148;BMP280;68562;51.600;6.524;2023-06-04T00:00:03;1020.2;;;17.3
79148;BMP280;68562;51.600;6.524;2023-06-04T00:05:00;1020.2;;;17.2
79148;BMP280;68562;51.600;6.524;2023-06-04T00:10:00;1020.2;;;17.1
79148;BMP280;68562;51.600;6.524;2023-06-04T00:15:00;1020.2;;;17.0
79148;BMP280;68562;51.600;6.524;2023-06-04T00:20:00;1020.1;;;17.0
79148;BMP280;68562;51.600;6.524;2023-06-04T00:25:00;1020.1;;;16.9
79148;BMP280;68562;51.600;6.524;2023-06-04T00:30:00;1020.1;;;16.8
79148;BMP280;68562;51.600;6.524;2023-06-04T00:35:00;1020.1;;;16.8
79148;BMP280;68562;51.600;6.524;2023-06-04T00:40:00;1020.1;;;16.7
79148;BMP280;68562;51.600;6.524;2023-06-04T00:45:00;1020.1;;;16.7
79148;BMP280;68562;51.600;6.524;2023-06-04T00:50:00;1020.1;;;16.6
79148;BMP280;68562;51.600;6.524;2023-06-04T00:55:00;1020.0;;;16.6
79148;BMP280;68562;51.600;6.524;2023-06-04T01:00:00;1020.0;;;16.5
79148;BMP280;68562;51.600;6.524;2023-06-04T01:05:07;1020.0;;;16.5
79148;BMP280;68562;51.600;6.524;2023-06-04T01:10:00;1020.1;;;16.4
79148;BMP280;68562;51.600;6.524;2023-06-04T01:15:00;1020.1;;;16.3
79148;BMP280;68562;51.600;6.524;2023-06-04T01:20:08;1020.1;;;16.2
79148;BMP280;68562;51.600;6.524;2023-06-04T01:25:03;1020.1;;;16.1
79148;BMP280;68562;51.600;6.524;2023-06-04T01:30:00;1020.1;;;16.1
79148;BMP280;68562;51.600;6.524;2023-06-04T01:35:00;1020.0;;;16.1
79148;BMP280;68562;51.600;6.524;2023-06-04T01:40:00;1020.0;;;16.0
79148;BMP280;68562;51.600;6.524;2023-06-04T01:45:00;1020.0;;;16.0
79148;BMP280;68562;51.600;6.524;2023-06-04T01:50:00;1020.0;;;15.9
79148;BMP280;68562;51.600;6.524;2023-06-04T01:55:00;1020.0;;;15.9
79148;BMP280;68562;51.600;6.524;2023-06-04T02:00:00;1020.0;;;15.8
79148;BMP280;68562;51.600;6.524;2023-06-04T02:05:00;1020.1;;;15.8
79148;BMP280;68562;51.600;6.524;2023-06-04T02:10:00;1020.1;;;15.7
79148;BMP280;68562;51.600;6.524;2023-06-04T02:15:00;1020.1;;;15.6
79148;BMP280;68562;51.600;6.524;2023-06-04T02:20:00;1020.2;;;15.6
79148;BMP280;68562;51.600;6.524;2023-06-04T02:25:00;1020.2;;;15.5
79148;BMP280;68562;51.600;6.524;2023-06-04T02:30:00;1020.2;;;15.5
79148;BMP280;68562;51.600;6.524;2023-06-04T02:35:00;1020.2;;;15.4
79148;BMP280;68562;51.600;6.524;2023-06-04T02:40:00;1020.2;;;15.3
79148;BMP280;68562;51.600;6.524;2023-06-04T02:45:00;1020.2;;;15.3
79148;BMP280;68562;51.600;6.524;2023-06-04T02:50:00;1020.2;;;15.2
79148;BMP280;68562;51.600;6.524;2023-06-04T02:55:00;1020.2;;;15.1
79148;BMP280;68562;51.600;6.524;2023-06-04T03:00:00;1020.2;;;15.1
79148;BMP280;68562;51.600;6.524;2023-06-04T03:05:00;1020.2;;;15.1
79148;BMP280;68562;51.600;6.524;2023-06-04T03:10:00;1020.2;;;15.0
79148;BMP280;68562;51.600;6.524;2023-06-04T03:15:00;1020.2;;;15.0
79148;BMP280;68562;51.600;6.524;2023-06-04T03:20:00;1020.2;;;14.9
79148;BMP280;68562;51.600;6.524;2023-06-04T03:25:00;1020.2;;;14.9
79148;BMP280;68562;51.600;6.524;2023-06-04T03:30:00;1020.2;;;14.8
79148;BMP280;68562;51.600;6.524;2023-06-04T03:35:00;1020.1;;;14.8
79148;BMP280;68562;51.600;6.524;2023-06-04T03:40:00;1020.2;;;14.7
79148;BMP280;68562;51.600;6.524;2023-06-04T03:45:00;1020.2;;;14.7
79148;BMP280;68562;51.600;6.524;2023-06-04T03:50:00;1020.2;;;14.6
79148;BMP280;68562;51.600;6.524;2023-06-04T03:55:00;1020.2;;;14.6
79148;BMP280;68562;51.600;6.524;2023-06-04T04:00:00;1020.2;;;14.6
79148;BMP280;68562;51.600;6.524;2023-06-04T04:05:00;1020.2;;;14.6
79148;BMP280;68562;51.600;6.524;2023-06-04T04:10:00;1020.2;;;14.6
79148;BMP280;68562;51.600;6.524;2023-06-04T04:15:00;1020.2;;;14.7
79148;BMP280;68562;51.600;6.524;2023-06-04T04:20:00;1020.3;;;14.7
79148;BMP280;68562;51.600;6.524;2023-06-04T04:25:00;1020.3;;;14.7
79148;BMP280;68562;51.600;6.524;2023-06-04T04:30:00;1020.3;;;14.8
79148;BMP280;68562;51.600;6.524;2023-06-04T04:35:00;1020.3;;;14.8
79148;BMP280;68562;51.600;6.524;2023-06-04T04:40:00;1020.3;;;14.9
79148;BMP280;68562;51.600;6.524;2023-06-04T04:45:00;1020.3;;;14.9
79148;BMP280;68562;51.600;6.524;2023-06-04T04:50:00;1020.3;;;15.0
79148;BMP280;68562;51.600;6.524;2023-06-04T04:55:00;1020.3;;;15.1
79148;BMP280;68562;51.600;6.524;2023-06-04T05:00:00;1020.3;;;15.1
79148;BMP280;68562;51.600;6.524;2023-06-04T05:05:00;1020.3;;;15.3
79148;BMP280;68562;51.600;6.524;2023-06-04T05:10:00;1020.4;;;15.4
79148;BMP280;68562;51.600;6.524;2023-06-04T05:15:00;1020.4;;;15.5
79148;BMP280;68562;51.600;6.524;2023-06-04T05:20:00;1020.5;;;15.6
79148;BMP280;68562;51.600;6.524;2023-06-04T05:25:00;1020.5;;;15.7
79148;BMP280;68562;51.600;6.524;2023-06-04T05:30:00;1020.4;;;15.9
79148;BMP280;68562;51.600;6.524;2023-06-04T05:35:00;1020.3;;;16.0
79148;BMP280;68562;51.600;6.524;2023-06-04T05:40:00;1020.3;;;16.1
79148;BMP280;68562;51.600;6.524;2023-06-04T05:45:00;1020.4;;;16.2
79148;BMP280;68562;51.600;6.524;2023-06-04T05:50:00;1020.4;;;16.3
79148;BMP280;68562;51.600;6.524;2023-06-04T05:55:00;1020.3;;;16.5
79148;BMP280;68562;51.600;6.524;2023-06-04T06:00:00;1020.3;;;16.7
79148;BMP280;68562;51.600;6.524;2023-06-04T06:05:00;1020.4;;;16.9
79148;BMP280;68562;51.600;6.524;2023-06-04T06:10:00;1020.4;;;17.2
79148;BMP280;68562;51.600;6.524;2023-06-04T06:15:00;1020.4;;;17.4
79148;BMP280;68562;51.600;6.524;2023-06-04T06:20:00;1020.4;;;17.8
79148;BMP280;68562;51.600;6.524;2023-06-04T06:25:00;1020.5;;;18.0
79148;BMP280;68562;51.600;6.524;2023-06-04T06:30:00;1020.5;;;18.4
79148;BMP280;68562;51.600;6.524;2023-06-04T06:35:00;1020.5;;;18.7
79148;BMP280;68562;51.600;6.524;2023-06-04T06:40:00;1020.6;;;19.1
79148;BMP280;68562;51.600;6.524;2023-06-04T06:45:00;1020.7;;;19.3
79148;BMP280;68562;51.600;6.524;2023-06-04T06:50:00;1020.7;;;19.6
79148;BMP280;68562;51.600;6.524;2023-06-04T06:55:00;1020.7;;;19.9
79148;BMP280;68562;51.600;6.524;2023-06-04T07:00:00;1020.7;;;20.2
79148;BMP280;68562;51.600;6.524;2023-06-04T07:05:00;1020.8;;;20.5
79148;BMP280;68562;51.600;6.524;2023-06-04T07:10:00;1020.7;;;20.9
79148;BMP280;68562;51.600;6.524;2023-06-04T07:15:00;1020.8;;;21.2
79148;BMP280;68562;51.600;6.524;2023-06-04T07:20:00;1020.8;;;21.5
79148;BMP280;68562;51.600;6.524;2023-06-04T07:25:00;1020.7;;;21.9
79148;BMP280;68562;51.600;6.524;2023-06-04T07:30:00;1020.8;;;22.2
79148;BMP280;68562;51.600;6.524;2023-06-04T07:35:01;1020.8;;;22.6
79148;BMP280;68562;51.600;6.524;2023-06-04T07:40:00;1020.8;;;23.0
79148;BMP280;68562;51.600;6.524;2023-06-04T07:45:00;1020.8;;;23.4
79148;BMP280;68562;51.600;6.524;2023-06-04T07:50:00;1020.8;;;23.9
79148;BMP280;68562;51.600;6.524;2023-06-04T07:55:00;1020.8;;;24.4
79148;BMP280;68562;51.600;6.524;2023-06-04T08:00:00;1020.7;;;24.9
79148;BMP280;68562;51.600;6.524;2023-06-04T08:05:00;1020.8;;;25.4
79148;BMP280;68562;51.600;6.524;2023-06-04T08:10:00;1020.7;;;25.9
79148;BMP280;68562;51.600;6.524;2023-06-04T08:15:00;1020.7;;;26.5
79148;BMP280;68562;51.600;6.524;2023-06-04T08:20:00;1020.7;;;27.0
79148;BMP280;68562;51.600;6.524;2023-06-04T08:25:00;1020.7;;;27.6
79148;BMP280;68562;51.600;6.524;2023-06-04T08:30:00;1020.7;;;28.1
79148;BMP280;68562;51.600;6.524;2023-06-04T08:35:00;1020.8;;;28.7
79148;BMP280;68562;51.600;6.524;2023-06-04T08:40:00;1020.8;;;29.2
79148;BMP280;68562;51.600;6.524;2023-06-04T08:45:00;1020.9;;;29.9
79148;BMP280;68562;51.600;6.524;2023-06-04T08:50:00;1020.8;;;30.5
79148;BMP280;68562;51.600;6.524;2023-06-04T08:55:01;1020.8;;;31.1
79148;BMP280;68562;51.600;6.524;2023-06-04T09:00:00;1020.8;;;31.8
79148;BMP280;68562;51.600;6.524;2023-06-04T09:05:00;1020.7;;;32.4
79148;BMP280;68562;51.600;6.524;2023-06-04T09:10:00;1020.8;;;32.8
79148;BMP280;68562;51.600;6.524;2023-06-04T09:15:00;1020.8;;;33.0
79148;BMP280;68562;51.600;6.524;2023-06-04T09:20:00;1020.8;;;33.4
79148;BMP280;68562;51.600;6.524;2023-06-04T09:25:01;1020.8;;;33.8
79148;BMP280;68562;51.600;6.524;2023-06-04T09:30:00;1020.8;;;34.2
79148;BMP280;68562;51.600;6.524;2023-06-04T09:35:09;1020.8;;;34.6
79148;BMP280;68562;51.600;6.524;2023-06-04T09:40:00;1020.8;;;34.9
79148;BMP280;68562;51.600;6.524;2023-06-04T09:45:00;1020.8;;;34.8
79148;BMP280;68562;51.600;6.524;2023-06-04T09:50:00;1020.7;;;34.9
79148;BMP280;68562;51.600;6.524;2023-06-04T09:55:00;1020.8;;;35.0
79148;BMP280;68562;51.600;6.524;2023-06-04T10:00:01;1020.7;;;35.0
79148;BMP280;68562;51.600;6.524;2023-06-04T10:05:00;1020.7;;;35.2
79148;BMP280;68562;51.600;6.524;2023-06-04T10:10:01;1020.7;;;35.6
79148;BMP280;68562;51.600;6.524;2023-06-04T10:15:02;1020.7;;;35.8
79148;BMP280;68562;51.600;6.524;2023-06-04T10:20:01;1020.6;;;35.8
79148;BMP280;68562;51.600;6.524;2023-06-04T10:25:00;1020.6;;;35.8
79148;BMP280;68562;51.600;6.524;2023-06-04T10:30:00;1020.7;;;35.8
79148;BMP280;68562;51.600;6.524;2023-06-04T10:35:03;1020.7;;;35.8
79148;BMP280;68562;51.600;6.524;2023-06-04T10:40:00;1020.6;;;36.0
79148;BMP280;68562;51.600;6.524;2023-06-04T10:45:00;1020.6;;;35.8
79148;BMP280;68562;51.600;6.524;2023-06-04T10:50:07;1020.6;;;36.0
79148;BMP280;68562;51.600;6.524;2023-06-04T10:55:03;1020.6;;;36.4
79148;BMP280;68562;51.600;6.524;2023-06-04T11:00:00;1020.6;;;36.8
79148;BMP280;68562;51.600;6.524;2023-06-04T11:05:01;1020.5;;;37.0
79148;BMP280;68562;51.600;6.524;2023-06-04T11:10:00;1020.6;;;37.3
79148;BMP280;68562;51.600;6.524;2023-06-04T11:15:00;1020.5;;;37.3
79148;BMP280;68562;51.600;6.524;2023-06-04T11:20:00;1020.4;;;37.5
79148;BMP280;68562;51.600;6.524;2023-06-04T11:25:00;1020.3;;;37.8
79148;BMP280;68562;51.600;6.524;2023-06-04T11:30:00;1020.4;;;38.3
79148;BMP280;68562;51.600;6.524;2023-06-04T11:35:03;1020.4;;;38.7
79148;BMP280;68562;51.600;6.524;2023-06-04T11:40:00;1020.4;;;39.0
79148;BMP280;68562;51.600;6.524;2023-06-04T11:45:00;1020.3;;;39.1
79148;BMP280;68562;51.600;6.524;2023-06-04T11:50:00;1020.4;;;39.2
79148;BMP280;68562;51.600;6.524;2023-06-04T11:55:00;1020.4;;;39.6
79148;BMP280;68562;51.600;6.524;2023-06-04T12:00:00;1020.3;;;39.8
79148;BMP280;68562;51.600;6.524;2023-06-04T12:05:10;1020.2;;;40.0
79148;BMP280;68562;51.600;6.524;2023-06-04T12:10:05;1020.2;;;40.1
79148;BMP280;68562;51.600;6.524;2023-06-04T12:15:00;1020.2;;;40.0
79148;BMP280;68562;51.600;6.524;2023-06-04T12:20:00;1020.2;;;40.0
79148;BMP280;68562;51.600;6.524;2023-06-04T12:25:00;1020.2;;;40.2
79148;BMP280;68562;51.600;6.524;2023-06-04T12:30:01;1020.1;;;40.5
79148;BMP280;68562;51.600;6.524;2023-06-04T12:35:00;1020.1;;;40.8
79148;BMP280;68562;51.600;6.524;2023-06-04T12:40:00;1020.0;;;41.3
79148;BMP280;68562;51.600;6.524;2023-06-04T12:45:00;1020.1;;;41.7
79148;BMP280;68562;51.600;6.524;2023-06-04T12:50:00;1020.0;;;41.7
79148;BMP280;68562;51.600;6.524;2023-06-04T12:55:00;1020.0;;;41.6
79148;BMP280;68562;51.600;6.524;2023-06-04T13:00:00;1019.9;;;41.7
79148;BMP280;68562;51.600;6.524;2023-06-04T13:05:00;1020.0;;;41.8
79148;BMP280;68562;51.600;6.524;2023-06-04T13:10:00;1019.9;;;42.0
79148;BMP280;68562;51.600;6.524;2023-06-04T13:15:00;1019.9;;;42.4
79148;BMP280;68562;51.600;6.524;2023-06-04T13:20:00;1019.9;;;42.7
79148;BMP280;68562;51.600;6.524;2023-06-04T13:25:00;1019.9;;;43.0
79148;BMP280;68562;51.600;6.524;2023-06-04T13:30:00;1020.0;;;43.3
79148;BMP280;68562;51.600;6.524;2023-06-04T13:35:00;1019.9;;;43.6
79148;BMP280;68562;51.600;6.524;2023-06-04T13:40:00;1019.9;;;43.7
79148;BMP280;68562;51.600;6.524;2023-06-04T13:45:00;1019.8;;;43.8
79148;BMP280;68562;51.600;6.524;2023-06-04T13:50:00;1019.8;;;43.9
79148;BMP280;68562;51.600;6.524;2023-06-04T13:55:00;1019.8;;;43.9
79148;BMP280;68562;51.600;6.524;2023-06-04T14:00:00;1019.8;;;43.8
79148;BMP280;68562;51.600;6.524;2023-06-04T14:05:00;1019.7;;;43.8
79148;BMP280;68562;51.600;6.524;2023-06-04T14:10:00;1019.7;;;43.9
79148;BMP280;68562;51.600;6.524;2023-06-04T14:15:00;1019.7;;;44.0
79148;BMP280;68562;51.600;6.524;2023-06-04T14:20:00;1019.6;;;43.9
79148;BMP280;68562;51.600;6.524;2023-06-04T14:25:00;1019.6;;;43.6
79148;BMP280;68562;51.600;6.524;2023-06-04T14:30:00;1019.5;;;43.3
79148;BMP280;68562;51.600;6.524;2023-06-04T14:35:00;1019.6;;;42.9
79148;BMP280;68562;51.600;6.524;2023-06-04T14:40:00;1019.5;;;42.5
79148;BMP280;68562;51.600;6.524;2023-06-04T14:45:00;1019.5;;;42.2
79148;BMP280;68562;51.600;6.524;2023-06-04T14:50:00;1019.5;;;42.0
79148;BMP280;68562;51.600;6.524;2023-06-04T14:55:00;1019.5;;;41.7
79148;BMP280;68562;51.600;6.524;2023-06-04T15:00:00;1019.4;;;41.4
79148;BMP280;68562;51.600;6.524;2023-06-04T15:05:00;1019.4;;;40.8
79148;BMP280;68562;51.600;6.524;2023-06-04T15:10:00;1019.4;;;40.3
79148;BMP280;68562;51.600;6.524;2023-06-04T15:15:00;1019.4;;;39.8
79148;BMP280;68562;51.600;6.524;2023-06-04T15:20:00;1019.4;;;39.3
79148;BMP280;68562;51.600;6.524;2023-06-04T15:25:00;1019.3;;;38.8
79148;BMP280;68562;51.600;6.524;2023-06-04T15:30:00;1019.3;;;38.5
79148;BMP280;68562;51.600;6.524;2023-06-04T15:35:00;1019.3;;;38.2
79148;BMP280;68562;51.600;6.524;2023-06-04T15:40:00;1019.3;;;37.9
79148;BMP280;68562;51.600;6.524;2023-06-04T15:45:00;1019.2;;;37.6
79148;BMP280;68562;51.600;6.524;2023-06-04T15:50:00;1019.2;;;37.2
79148;BMP280;68562;51.600;6.524;2023-06-04T15:55:00;1019.2;;;36.9
79148;BMP280;68562;51.600;6.524;2023-06-04T16:00:00;1019.3;;;36.5
79148;BMP280;68562;51.600;6.524;2023-06-04T16:05:00;1019.2;;;36.2
79148;BMP280;68562;51.600;6.524;2023-06-04T16:10:00;1019.1;;;35.9
79148;BMP280;68562;51.600;6.524;2023-06-04T16:15:00;1019.0;;;35.7
79148;BMP280;68562;51.600;6.524;2023-06-04T16:20:00;1019.0;;;35.1
79148;BMP280;68562;51.600;6.524;2023-06-04T16:25:00;1019.0;;;34.1
79148;BMP280;68562;51.600;6.524;2023-06-04T16:30:00;1019.0;;;33.5
79148;BMP280;68562;51.600;6.524;2023-06-04T16:35:00;1019.1;;;33.0
79148;BMP280;68562;51.600;6.524;2023-06-04T16:40:00;1019.0;;;32.6
79148;BMP280;68562;51.600;6.524;2023-06-04T16:45:00;1019.0;;;32.2
79148;BMP280;68562;51.600;6.524;2023-06-04T16:50:00;1019.0;;;31.8
79148;BMP280;68562;51.600;6.524;2023-06-04T16:55:00;1019.0;;;31.5
79148;BMP280;68562;51.600;6.524;2023-06-04T17:00:00;1019.0;;;31.3
79148;BMP280;68562;51.600;6.524;2023-06-04T17:05:00;1018.9;;;31.1
79148;BMP280;68562;51.600;6.524;2023-06-04T17:10:00;1018.9;;;30.9
79148;BMP280;68562;51.600;6.524;2023-06-04T17:15:00;1018.9;;;30.7
79148;BMP280;68562;51.600;6.524;2023-06-04T17:20:00;1018.9;;;30.5
79148;BMP280;68562;51.600;6.524;2023-06-04T17:25:00;1018.9;;;30.2
79148;BMP280;68562;51.600;6.524;2023-06-04T17:30:00;1018.9;;;30.0
79148;BMP280;68562;51.600;6.524;2023-06-04T17:35:00;1018.9;;;29.7
79148;BMP280;68562;51.600;6.524;2023-06-04T17:40:00;1018.9;;;29.5
79148;BMP280;68562;51.600;6.524;2023-06-04T17:45:01;1019.0;;;29.3
79148;BMP280;68562;51.600;6.524;2023-06-04T17:50:00;1019.0;;;29.1
79148;BMP280;68562;51.600;6.524;2023-06-04T17:55:00;1019.0;;;28.9
79148;BMP280;68562;51.600;6.524;2023-06-04T18:00:00;1019.0;;;28.7
79148;BMP280;68562;51.600;6.524;2023-06-04T18:05:00;1019.0;;;28.5
79148;BMP280;68562;51.600;6.524;2023-06-04T18:10:00;1019.1;;;28.4
79148;BMP280;68562;51.600;6.524;2023-06-04T18:15:00;1019.1;;;28.2
79148;BMP280;68562;51.600;6.524;2023-06-04T18:20:00;1019.1;;;28.0
79148;BMP280;68562;51.600;6.524;2023-06-04T18:25:00;1019.1;;;27.9
79148;BMP280;68562;51.600;6.524;2023-06-04T18:30:00;1019.0;;;27.8
79148;BMP280;68562;51.600;6.524;2023-06-04T18:35:00;1019.1;;;27.7
79148;BMP280;68562;51.600;6.524;2023-06-04T18:40:00;1019.1;;;27.7
79148;BMP280;68562;51.600;6.524;2023-06-04T18:45:00;1019.1;;;27.7
79148;BMP280;68562;51.600;6.524;2023-06-04T18:50:00;1019.1;;;27.7
79148;BMP280;68562;51.600;6.524;2023-06-04T18:55:00;1019.0;;;27.6
79148;BMP280;68562;51.600;6.524;2023-06-04T19:00:00;1019.1;;;27.5
79148;BMP280;68562;51.600;6.524;2023-06-04T19:05:00;1019.1;;;27.4
79148;BMP280;68562;51.600;6.524;2023-06-04T19:10:00;1019.0;;;27.3
79148;BMP280;68562;51.600;6.524;2023-06-04T19:15:00;1019.1;;;27.2
79148;BMP280;68562;51.600;6.524;2023-06-04T19:20:00;1019.1;;;27.1
79148;BMP280;68562;51.600;6.524;2023-06-04T19:25:00;1019.2;;;26.9
79148;BMP280;68562;51.600;6.524;2023-06-04T19:30:00;1019.3;;;26.8
79148;BMP280;68562;51.600;6.524;2023-06-04T19:35:00;1019.3;;;26.7
79148;BMP280;68562;51.600;6.524;2023-06-04T19:40:00;1019.3;;;26.4
79148;BMP280;68562;51.600;6.524;2023-06-04T19:45:00;1019.4;;;26.1
79148;BMP280;68562;51.600;6.524;2023-06-04T19:50:00;1019.4;;;25.9
79148;BMP280;68562;51.600;6.524;2023-06-04T19:55:00;1019.4;;;25.5
79148;BMP280;68562;51.600;6.524;2023-06-04T20:00:00;1019.5;;;25.3
79148;BMP280;68562;51.600;6.524;2023-06-04T20:05:00;1019.5;;;25.1
79148;BMP280;68562;51.600;6.524;2023-06-04T20:10:00;1019.6;;;24.9
79148;BMP280;68562;51.600;6.524;2023-06-04T20:15:00;1019.6;;;24.6
79148;BMP280;68562;51.600;6.524;2023-06-04T20:20:00;1019.7;;;24.5
79148;BMP280;68562;51.600;6.524;2023-06-04T20:25:00;1019.8;;;24.3
79148;BMP280;68562;51.600;6.524;2023-06-04T20:30:00;1019.9;;;24.1
79148;BMP280;68562;51.600;6.524;2023-06-04T20:35:00;1019.9;;;23.8
79148;BMP280;68562;51.600;6.524;2023-06-04T20:40:00;1019.9;;;23.6
79148;BMP280;68562;51.600;6.524;2023-06-04T20:45:00;1020.0;;;23.5
79148;BMP280;68562;51.600;6.524;2023-06-04T20:50:01;1020.0;;;23.3
79148;BMP280;68562;51.600;6.524;2023-06-04T20:55:00;1020.1;;;23.1
79148;BMP280;68562;51.600;6.524;2023-06-04T21:00:00;1020.1;;;23.0
79148;BMP280;68562;51.600;6.524;2023-06-04T21:05:00;1020.2;;;22.8
79148;BMP280;68562;51.600;6.524;2023-06-04T21:10:00;1020.2;;;22.7
79148;BMP280;68562;51.600;6.524;2023-06-04T21:15:00;1020.3;;;22.6
79148;BMP280;68562;51.600;6.524;2023-06-04T21:20:00;1020.3;;;22.4
79148;BMP280;68562;51.600;6.524;2023-06-04T21:25:00;1020.3;;;22.3
79148;BMP280;68562;51.600;6.524;2023-06-04T21:30:00;1020.4;;;22.2
79148;BMP280;68562;51.600;6.524;2023-06-04T21:35:00;1020.4;;;22.0
79148;BMP280;68562;51.600;6.524;2023-06-04T21:40:00;1020.4;;;21.9
79148;BMP280;68562;51.600;6.524;2023-06-04T21:45:00;1020.4;;;21.8
79148;BMP280;68562;51.600;6.524;2023-06-04T21:50:00;1020.5;;;21.6
79148;BMP280;68562;51.600;6.524;2023-06-04T21:55:00;1020.5;;;21.5
79148;BMP280;68562;51.600;6.524;2023-06-04T22:00:00;1020.5;;;21.4
79148;BMP280;68562;51.600;6.524;2023-06-04T22:05:00;1020.6;;;21.3
79148;BMP280;68562;51.600;6.524;2023-06-04T22:10:00;1020.6;;;21.2
79148;BMP280;68562;51.600;6.524;2023-06-04T22:15:00;1020.6;;;21.1
79148;BMP280;68562;51.600;6.524;2023-06-04T22:20:00;1020.6;;;20.9
79148;BMP280;68562;51.600;6.524;2023-06-04T22:25:00;1020.7;;;20.9
79148;BMP280;68562;51.600;6.524;2023-06-04T22:30:00;1020.8;;;20.7
79148;BMP280;68562;51.600;6.524;2023-06-04T22:35:00;1020.8;;;20.7
79148;BMP280;68562;51.600;6.524;2023-06-04T22:40:00;1020.8;;;20.5
79148;BMP280;68562;51.600;6.524;2023-06-04T22:45:00;1020.8;;;20.5
79148;BMP280;68562;51.600;6.524;2023-06-04T22:50:00;1020.8;;;20.4
79148;BMP280;68562;51.600;6.524;2023-06-04T22:55:00;1020.8;;;20.3
79148;BMP280;68562;51.600;6.524;2023-06-04T23:00:00;1020.9;;;20.2
79148;BMP280;68562;51.600;6.524;2023-06-04T23:05:00;1020.9;;;20.1
79148;BMP280;68562;51.600;6.524;2023-06-04T23:10:00;1020.9;;;20.0
79148;BMP280;68562;51.600;6.524;2023-06-04T23:15:00;1020.9;;;20.0
79148;BMP280;68562;51.600;6.524;2023-06-04T23:20:00;1020.9;;;19.8
79148;BMP280;68562;51.600;6.524;2023-06-04T23:25:00;1020.9;;;19.7
79148;BMP280;68562;51.600;6.524;2023-06-04T23:30:00;1021.0;;;19.6
79148;BMP280;68562;51.600;6.524;2023-06-04T23:35:00;1021.0;;;19.5
79148;BMP280;68562;51.600;6.524;2023-06-04T23:40:00;1021.0;;;19.4
79148;BMP280;68562;51.600;6.524;2023-06-04T23:45:00;1021.0;;;19.3
79148;BMP280;68562;51.600;6.524;2023-06-04T23:50:00;1021.0;;;19.2
79148;BMP280;68562;51.600;6.524;2023-06-04T23:55:00;1021.0;;;19.1
